sensor_id;sensor_type;location;lat;lon;timestamp;P1;durP1;ratioP1;P2;durP2;ratioP2
11439;SDS011;5776;51.814;4.510;2023-12-14T00:01:27;12.53;;;7.80;;
11439;SDS011;5776;51.814;4.510;2023-12-14T00:03:53;11.77;;;8.47;;
11439;SDS011;5776;51.814;4.510;2023-12-14T00:06:18;11.93;;;7.87;;
11439;SDS011;5776;51.814;4.510;2023-12-14T00:08:44;13.73;;;8.27;;
11439;SDS011;5776;51.814;4.510;2023-12-14T00:11:10;11.17;;;6.47;;
11439;SDS011;5776;51.814;4.510;2023-12-14T00:13:37;11.20;;;7.07;;
11439;SDS011;5776;51.814;4.510;2023-12-14T00:16:03;10.03;;;7.63;;
11439;SDS011;5776;51.814;4.510;2023-12-14T00:18:30;10.43;;;7.20;;
11439;SDS011;5776;51.814;4.510;2023-12-14T00:20:56;10.17;;;7.23;;
11439;SDS011;5776;51.814;4.510;2023-12-14T00:23:22;9.97;;;7.33;;
11439;SDS011;5776;51.814;4.510;2023-12-14T00:25:49;9.10;;;6.13;;
11439;SDS011;5776;51.814;4.510;2023-12-14T00:28:15;8.90;;;5.60;;
11439;SDS011;5776;51.814;4.510;2023-12-14T00:30:41;9.70;;;6.27;;
11439;SDS011;5776;51.814;4.510;2023-12-14T00:33:07;7.50;;;5.10;;
11439;SDS011;5776;51.814;4.510;2023-12-14T00:35:32;11.00;;;6.47;;
11439;SDS011;5776;51.814;4.510;2023-12-14T00:37:58;6.30;;;5.23;;
11439;SDS011;5776;51.814;4.510;2023-12-14T00:40:24;10.20;;;5.93;;
11439;SDS011;5776;51.814;4.510;2023-12-14T00:42:50;10.37;;;6.37;;
11439;SDS011;5776;51.814;4.510;2023-12-14T00:45:16;10.30;;;6.50;;
11439;SDS011;5776;51.814;4.510;2023-12-14T00:47:42;10.17;;;6.70;;
11439;SDS011;5776;51.814;4.510;2023-12-14T00:50:10;7.43;;;5.60;;
11439;SDS011;5776;51.814;4.510;2023-12-14T00:52:35;10.40;;;5.40;;
11439;SDS011;5776;51.814;4.510;2023-12-14T00:55:01;7.27;;;5.50;;
11439;SDS011;5776;51.814;4.510;2023-12-14T00:57:27;8.20;;;5.80;;
11439;SDS011;5776;51.814;4.510;2023-12-14T00:59:54;7.80;;;5.40;;
11439;SDS011;5776;51.814;4.510;2023-12-14T01:02:20;7.33;;;5.07;;
11439;SDS011;5776;51.814;4.510;2023-12-14T01:04:48;7.63;;;5.53;;
11439;SDS011;5776;51.814;4.510;2023-12-14T01:07:14;8.13;;;5.40;;
11439;SDS011;5776;51.814;4.510;2023-12-14T01:09:39;7.30;;;4.87;;
11439;SDS011;5776;51.814;4.510;2023-12-14T01:12:05;6.60;;;4.73;;
11439;SDS011;5776;51.814;4.510;2023-12-14T01:14:30;6.00;;;4.87;;
11439;SDS011;5776;51.814;4.510;2023-12-14T01:16:56;7.20;;;5.70;;
11439;SDS011;5776;51.814;4.510;2023-12-14T01:19:22;7.10;;;5.37;;
11439;SDS011;5776;51.814;4.510;2023-12-14T01:21:48;7.13;;;5.53;;
11439;SDS011;5776;51.814;4.510;2023-12-14T01:24:14;9.17;;;5.97;;
11439;SDS011;5776;51.814;4.510;2023-12-14T01:26:40;8.90;;;5.90;;
11439;SDS011;5776;51.814;4.510;2023-12-14T01:29:06;12.07;;;6.27;;
11439;SDS011;5776;51.814;4.510;2023-12-14T01:31:32;8.20;;;5.70;;
11439;SDS011;5776;51.814;4.510;2023-12-14T01:33:58;9.00;;;6.07;;
11439;SDS011;5776;51.814;4.510;2023-12-14T01:36:25;8.73;;;5.83;;
11439;SDS011;5776;51.814;4.510;2023-12-14T01:38:52;7.13;;;5.33;;
11439;SDS011;5776;51.814;4.510;2023-12-14T01:41:18;7.03;;;4.90;;
11439;SDS011;5776;51.814;4.510;2023-12-14T01:43:44;7.47;;;5.40;;
11439;SDS011;5776;51.814;4.510;2023-12-14T01:46:10;9.83;;;5.10;;
11439;SDS011;5776;51.814;4.510;2023-12-14T01:48:36;9.27;;;5.13;;
11439;SDS011;5776;51.814;4.510;2023-12-14T01:51:02;7.50;;;4.80;;
11439;SDS011;5776;51.814;4.510;2023-12-14T01:53:28;8.17;;;5.07;;
11439;SDS011;5776;51.814;4.510;2023-12-14T01:55:54;6.87;;;4.40;;
11439;SDS011;5776;51.814;4.510;2023-12-14T01:58:20;7.83;;;5.20;;
11439;SDS011;5776;51.814;4.510;2023-12-14T02:00:49;10.63;;;5.30;;
11439;SDS011;5776;51.814;4.510;2023-12-14T02:03:21;8.30;;;4.87;;
11439;SDS011;5776;51.814;4.510;2023-12-14T02:05:47;10.73;;;5.93;;
11439;SDS011;5776;51.814;4.510;2023-12-14T02:08:14;7.30;;;5.23;;
11439;SDS011;5776;51.814;4.510;2023-12-14T02:10:40;7.10;;;4.57;;
11439;SDS011;5776;51.814;4.510;2023-12-14T02:13:06;8.70;;;5.60;;
11439;SDS011;5776;51.814;4.510;2023-12-14T02:15:33;10.23;;;5.50;;
11439;SDS011;5776;51.814;4.510;2023-12-14T02:17:59;9.13;;;5.60;;
11439;SDS011;5776;51.814;4.510;2023-12-14T02:20:30;6.23;;;4.13;;
11439;SDS011;5776;51.814;4.510;2023-12-14T02:22:56;9.30;;;5.60;;
11439;SDS011;5776;51.814;4.510;2023-12-14T02:25:22;7.60;;;5.10;;
11439;SDS011;5776;51.814;4.510;2023-12-14T02:27:49;6.23;;;4.23;;
11439;SDS011;5776;51.814;4.510;2023-12-14T02:30:17;7.10;;;5.33;;
11439;SDS011;5776;51.814;4.510;2023-12-14T02:32:43;7.90;;;5.20;;
11439;SDS011;5776;51.814;4.510;2023-12-14T02:35:09;8.93;;;5.60;;
11439;SDS011;5776;51.814;4.510;2023-12-14T02:37:35;9.60;;;5.80;;
11439;SDS011;5776;51.814;4.510;2023-12-14T02:40:08;10.30;;;6.17;;
11439;SDS011;5776;51.814;4.510;2023-12-14T02:42:36;9.83;;;5.93;;
11439;SDS011;5776;51.814;4.510;2023-12-14T02:45:03;12.70;;;6.90;;
11439;SDS011;5776;51.814;4.510;2023-12-14T02:47:29;11.30;;;7.03;;
11439;SDS011;5776;51.814;4.510;2023-12-14T02:49:55;10.07;;;6.70;;
11439;SDS011;5776;51.814;4.510;2023-12-14T02:52:21;12.97;;;7.53;;
11439;SDS011;5776;51.814;4.510;2023-12-14T02:54:48;12.33;;;7.57;;
11439;SDS011;5776;51.814;4.510;2023-12-14T02:57:14;13.03;;;7.07;;
11439;SDS011;5776;51.814;4.510;2023-12-14T02:59:40;11.57;;;6.00;;
11439;SDS011;5776;51.814;4.510;2023-12-14T03:02:07;11.83;;;6.33;;
11439;SDS011;5776;51.814;4.510;2023-12-14T03:04:32;12.87;;;6.57;;
11439;SDS011;5776;51.814;4.510;2023-12-14T03:06:58;13.07;;;6.40;;
11439;SDS011;5776;51.814;4.510;2023-12-14T03:09:30;11.43;;;6.27;;
11439;SDS011;5776;51.814;4.510;2023-12-14T03:11:56;9.90;;;6.30;;
11439;SDS011;5776;51.814;4.510;2023-12-14T03:14:22;11.50;;;6.20;;
11439;SDS011;5776;51.814;4.510;2023-12-14T03:16:48;14.37;;;7.53;;
11439;SDS011;5776;51.814;4.510;2023-12-14T03:19:15;10.53;;;6.03;;
11439;SDS011;5776;51.814;4.510;2023-12-14T03:21:41;12.63;;;6.73;;
11439;SDS011;5776;51.814;4.510;2023-12-14T03:24:08;11.33;;;6.70;;
11439;SDS011;5776;51.814;4.510;2023-12-14T03:26:37;9.33;;;6.37;;
11439;SDS011;5776;51.814;4.510;2023-12-14T03:29:03;11.63;;;6.27;;
11439;SDS011;5776;51.814;4.510;2023-12-14T03:31:29;9.80;;;6.00;;
11439;SDS011;5776;51.814;4.510;2023-12-14T03:33:55;11.10;;;6.37;;
11439;SDS011;5776;51.814;4.510;2023-12-14T03:36:21;11.40;;;5.87;;
11439;SDS011;5776;51.814;4.510;2023-12-14T03:38:51;9.93;;;5.53;;
11439;SDS011;5776;51.814;4.510;2023-12-14T03:41:17;13.70;;;6.20;;
11439;SDS011;5776;51.814;4.510;2023-12-14T03:43:43;13.93;;;6.63;;
11439;SDS011;5776;51.814;4.510;2023-12-14T03:46:09;11.53;;;6.17;;
11439;SDS011;5776;51.814;4.510;2023-12-14T03:48:36;8.93;;;5.77;;
11439;SDS011;5776;51.814;4.510;2023-12-14T03:51:04;12.70;;;6.27;;
11439;SDS011;5776;51.814;4.510;2023-12-14T03:53:31;10.57;;;6.17;;
11439;SDS011;5776;51.814;4.510;2023-12-14T03:55:57;10.00;;;7.13;;
11439;SDS011;5776;51.814;4.510;2023-12-14T03:58:23;9.03;;;6.10;;
11439;SDS011;5776;51.814;4.510;2023-12-14T04:00:51;9.33;;;6.10;;
11439;SDS011;5776;51.814;4.510;2023-12-14T04:03:19;9.87;;;6.77;;
11439;SDS011;5776;51.814;4.510;2023-12-14T04:05:45;11.67;;;6.53;;
11439;SDS011;5776;51.814;4.510;2023-12-14T04:08:11;10.20;;;5.80;;
11439;SDS011;5776;51.814;4.510;2023-12-14T04:10:37;14.03;;;6.27;;
11439;SDS011;5776;51.814;4.510;2023-12-14T04:13:02;10.87;;;5.20;;
11439;SDS011;5776;51.814;4.510;2023-12-14T04:15:28;13.77;;;5.60;;
11439;SDS011;5776;51.814;4.510;2023-12-14T04:17:54;10.13;;;5.37;;
11439;SDS011;5776;51.814;4.510;2023-12-14T04:20:20;9.93;;;5.03;;
11439;SDS011;5776;51.814;4.510;2023-12-14T04:22:46;9.07;;;5.43;;
11439;SDS011;5776;51.814;4.510;2023-12-14T04:25:12;8.63;;;4.97;;
11439;SDS011;5776;51.814;4.510;2023-12-14T04:27:38;12.97;;;5.20;;
11439;SDS011;5776;51.814;4.510;2023-12-14T04:30:04;10.57;;;5.10;;
11439;SDS011;5776;51.814;4.510;2023-12-14T04:32:31;7.07;;;4.83;;
11439;SDS011;5776;51.814;4.510;2023-12-14T04:34:56;9.13;;;5.60;;
11439;SDS011;5776;51.814;4.510;2023-12-14T04:37:22;10.90;;;5.17;;
11439;SDS011;5776;51.814;4.510;2023-12-14T04:39:48;13.07;;;5.70;;
11439;SDS011;5776;51.814;4.510;2023-12-14T04:42:15;9.40;;;5.10;;
11439;SDS011;5776;51.814;4.510;2023-12-14T04:44:42;9.37;;;4.63;;
11439;SDS011;5776;51.814;4.510;2023-12-14T04:47:08;10.50;;;4.73;;
11439;SDS011;5776;51.814;4.510;2023-12-14T04:49:34;9.00;;;5.43;;
11439;SDS011;5776;51.814;4.510;2023-12-14T04:52:00;8.87;;;4.67;;
11439;SDS011;5776;51.814;4.510;2023-12-14T04:54:26;7.80;;;4.80;;
11439;SDS011;5776;51.814;4.510;2023-12-14T04:56:51;9.40;;;4.10;;
11439;SDS011;5776;51.814;4.510;2023-12-14T04:59:18;7.60;;;4.67;;
11439;SDS011;5776;51.814;4.510;2023-12-14T05:01:44;8.50;;;4.57;;
11439;SDS011;5776;51.814;4.510;2023-12-14T05:04:11;10.07;;;4.60;;
11439;SDS011;5776;51.814;4.510;2023-12-14T05:06:38;9.90;;;4.20;;
11439;SDS011;5776;51.814;4.510;2023-12-14T05:09:04;7.97;;;4.43;;
11439;SDS011;5776;51.814;4.510;2023-12-14T05:11:32;13.60;;;4.03;;
11439;SDS011;5776;51.814;4.510;2023-12-14T05:13:57;6.73;;;3.67;;
11439;SDS011;5776;51.814;4.510;2023-12-14T05:16:24;9.20;;;3.93;;
11439;SDS011;5776;51.814;4.510;2023-12-14T05:18:53;9.53;;;4.07;;
11439;SDS011;5776;51.814;4.510;2023-12-14T05:21:20;9.67;;;3.87;;
11439;SDS011;5776;51.814;4.510;2023-12-14T05:23:46;5.70;;;3.37;;
11439;SDS011;5776;51.814;4.510;2023-12-14T05:26:12;7.07;;;4.23;;
11439;SDS011;5776;51.814;4.510;2023-12-14T05:28:38;7.60;;;4.00;;
11439;SDS011;5776;51.814;4.510;2023-12-14T05:31:04;6.70;;;3.97;;
11439;SDS011;5776;51.814;4.510;2023-12-14T05:33:30;7.57;;;3.20;;
11439;SDS011;5776;51.814;4.510;2023-12-14T05:35:56;6.50;;;3.50;;
11439;SDS011;5776;51.814;4.510;2023-12-14T05:38:22;7.40;;;3.67;;
11439;SDS011;5776;51.814;4.510;2023-12-14T05:40:49;9.40;;;3.70;;
11439;SDS011;5776;51.814;4.510;2023-12-14T05:43:15;4.53;;;2.97;;
11439;SDS011;5776;51.814;4.510;2023-12-14T05:45:41;7.13;;;3.30;;
11439;SDS011;5776;51.814;4.510;2023-12-14T05:48:07;7.67;;;3.60;;
11439;SDS011;5776;51.814;4.510;2023-12-14T05:50:33;3.63;;;2.50;;
11439;SDS011;5776;51.814;4.510;2023-12-14T05:52:59;4.93;;;2.47;;
11439;SDS011;5776;51.814;4.510;2023-12-14T05:55:24;6.63;;;2.33;;
11439;SDS011;5776;51.814;4.510;2023-12-14T05:57:50;3.73;;;2.33;;
11439;SDS011;5776;51.814;4.510;2023-12-14T06:00:17;8.17;;;2.87;;
11439;SDS011;5776;51.814;4.510;2023-12-14T06:02:44;5.30;;;3.00;;
11439;SDS011;5776;51.814;4.510;2023-12-14T06:05:10;8.27;;;3.30;;
11439;SDS011;5776;51.814;4.510;2023-12-14T06:07:36;7.03;;;3.47;;
11439;SDS011;5776;51.814;4.510;2023-12-14T06:10:03;5.40;;;2.03;;
11439;SDS011;5776;51.814;4.510;2023-12-14T06:12:29;4.73;;;2.73;;
11439;SDS011;5776;51.814;4.510;2023-12-14T06:14:55;4.87;;;3.00;;
11439;SDS011;5776;51.814;4.510;2023-12-14T06:17:20;4.97;;;2.60;;
11439;SDS011;5776;51.814;4.510;2023-12-14T06:19:46;8.33;;;3.10;;
11439;SDS011;5776;51.814;4.510;2023-12-14T06:22:12;5.87;;;3.20;;
11439;SDS011;5776;51.814;4.510;2023-12-14T06:24:40;8.23;;;3.10;;
11439;SDS011;5776;51.814;4.510;2023-12-14T06:27:06;7.20;;;3.50;;
11439;SDS011;5776;51.814;4.510;2023-12-14T06:29:32;5.73;;;3.60;;
11439;SDS011;5776;51.814;4.510;2023-12-14T06:31:57;5.17;;;2.67;;
11439;SDS011;5776;51.814;4.510;2023-12-14T06:34:23;9.40;;;3.60;;
11439;SDS011;5776;51.814;4.510;2023-12-14T06:36:49;4.87;;;2.57;;
11439;SDS011;5776;51.814;4.510;2023-12-14T06:39:15;6.93;;;3.50;;
11439;SDS011;5776;51.814;4.510;2023-12-14T06:41:41;7.23;;;3.20;;
11439;SDS011;5776;51.814;4.510;2023-12-14T06:44:08;4.97;;;3.07;;
11439;SDS011;5776;51.814;4.510;2023-12-14T06:46:35;4.80;;;3.53;;
11439;SDS011;5776;51.814;4.510;2023-12-14T06:49:02;5.77;;;2.73;;
11439;SDS011;5776;51.814;4.510;2023-12-14T06:51:27;4.37;;;2.90;;
11439;SDS011;5776;51.814;4.510;2023-12-14T06:53:53;8.30;;;3.60;;
11439;SDS011;5776;51.814;4.510;2023-12-14T06:56:20;7.33;;;2.87;;
11439;SDS011;5776;51.814;4.510;2023-12-14T06:58:45;5.00;;;3.03;;
11439;SDS011;5776;51.814;4.510;2023-12-14T07:01:15;3.37;;;2.13;;
11439;SDS011;5776;51.814;4.510;2023-12-14T07:03:42;7.60;;;3.07;;
11439;SDS011;5776;51.814;4.510;2023-12-14T07:06:15;5.53;;;2.77;;
11439;SDS011;5776;51.814;4.510;2023-12-14T07:08:42;6.83;;;3.17;;
11439;SDS011;5776;51.814;4.510;2023-12-14T07:11:09;5.23;;;2.60;;
11439;SDS011;5776;51.814;4.510;2023-12-14T07:13:35;4.73;;;2.80;;
11439;SDS011;5776;51.814;4.510;2023-12-14T07:16:05;6.07;;;2.90;;
11439;SDS011;5776;51.814;4.510;2023-12-14T07:18:34;5.13;;;3.17;;
11439;SDS011;5776;51.814;4.510;2023-12-14T07:21:01;5.07;;;2.97;;
11439;SDS011;5776;51.814;4.510;2023-12-14T07:23:27;5.53;;;3.13;;
11439;SDS011;5776;51.814;4.510;2023-12-14T07:25:53;6.43;;;3.23;;
11439;SDS011;5776;51.814;4.510;2023-12-14T07:28:20;7.20;;;3.20;;
11439;SDS011;5776;51.814;4.510;2023-12-14T07:30:46;4.83;;;3.00;;
11439;SDS011;5776;51.814;4.510;2023-12-14T07:33:12;4.23;;;3.00;;
11439;SDS011;5776;51.814;4.510;2023-12-14T07:35:40;5.97;;;3.60;;
11439;SDS011;5776;51.814;4.510;2023-12-14T07:38:05;4.27;;;2.90;;
11439;SDS011;5776;51.814;4.510;2023-12-14T07:40:31;6.87;;;3.93;;
11439;SDS011;5776;51.814;4.510;2023-12-14T07:42:57;5.93;;;3.17;;
11439;SDS011;5776;51.814;4.510;2023-12-14T07:45:23;5.87;;;3.20;;
11439;SDS011;5776;51.814;4.510;2023-12-14T07:47:49;6.53;;;3.73;;
11439;SDS011;5776;51.814;4.510;2023-12-14T07:50:15;4.30;;;3.10;;
11439;SDS011;5776;51.814;4.510;2023-12-14T07:52:41;6.30;;;3.50;;
11439;SDS011;5776;51.814;4.510;2023-12-14T07:55:07;8.30;;;3.47;;
11439;SDS011;5776;51.814;4.510;2023-12-14T07:57:33;4.80;;;3.30;;
11439;SDS011;5776;51.814;4.510;2023-12-14T07:59:59;4.07;;;2.40;;
11439;SDS011;5776;51.814;4.510;2023-12-14T08:02:25;7.97;;;3.37;;
11439;SDS011;5776;51.814;4.510;2023-12-14T08:04:51;8.40;;;3.50;;
11439;SDS011;5776;51.814;4.510;2023-12-14T08:07:17;4.50;;;2.93;;
11439;SDS011;5776;51.814;4.510;2023-12-14T08:09:44;7.83;;;3.43;;
11439;SDS011;5776;51.814;4.510;2023-12-14T08:12:11;4.00;;;3.27;;
11439;SDS011;5776;51.814;4.510;2023-12-14T08:14:37;7.03;;;3.27;;
11439;SDS011;5776;51.814;4.510;2023-12-14T08:17:06;6.70;;;3.40;;
11439;SDS011;5776;51.814;4.510;2023-12-14T08:19:33;6.83;;;3.57;;
11439;SDS011;5776;51.814;4.510;2023-12-14T08:21:59;6.27;;;3.63;;
11439;SDS011;5776;51.814;4.510;2023-12-14T08:24:25;5.43;;;3.80;;
11439;SDS011;5776;51.814;4.510;2023-12-14T08:26:51;5.50;;;3.70;;
11439;SDS011;5776;51.814;4.510;2023-12-14T08:29:18;6.53;;;3.47;;
11439;SDS011;5776;51.814;4.510;2023-12-14T08:31:44;11.17;;;3.47;;
11439;SDS011;5776;51.814;4.510;2023-12-14T08:34:10;6.13;;;3.63;;
11439;SDS011;5776;51.814;4.510;2023-12-14T08:36:37;4.53;;;3.10;;
11439;SDS011;5776;51.814;4.510;2023-12-14T08:39:02;4.70;;;3.67;;
11439;SDS011;5776;51.814;4.510;2023-12-14T08:41:29;6.90;;;3.77;;
11439;SDS011;5776;51.814;4.510;2023-12-14T08:43:55;8.73;;;3.83;;
11439;SDS011;5776;51.814;4.510;2023-12-14T08:46:21;6.57;;;3.87;;
11439;SDS011;5776;51.814;4.510;2023-12-14T08:48:47;6.37;;;3.77;;
11439;SDS011;5776;51.814;4.510;2023-12-14T08:51:13;7.53;;;3.90;;
11439;SDS011;5776;51.814;4.510;2023-12-14T08:53:38;6.13;;;3.77;;
11439;SDS011;5776;51.814;4.510;2023-12-14T08:56:05;7.30;;;3.80;;
11439;SDS011;5776;51.814;4.510;2023-12-14T08:58:31;7.70;;;4.33;;
11439;SDS011;5776;51.814;4.510;2023-12-14T09:00:57;6.93;;;4.20;;
11439;SDS011;5776;51.814;4.510;2023-12-14T09:03:23;5.17;;;3.90;;
11439;SDS011;5776;51.814;4.510;2023-12-14T09:05:49;6.40;;;3.47;;
11439;SDS011;5776;51.814;4.510;2023-12-14T09:08:16;7.57;;;4.20;;
11439;SDS011;5776;51.814;4.510;2023-12-14T09:10:42;8.07;;;4.10;;
11439;SDS011;5776;51.814;4.510;2023-12-14T09:13:08;6.80;;;4.07;;
11439;SDS011;5776;51.814;4.510;2023-12-14T09:15:34;5.27;;;3.97;;
11439;SDS011;5776;51.814;4.510;2023-12-14T09:18:00;5.90;;;3.90;;
11439;SDS011;5776;51.814;4.510;2023-12-14T09:20:26;6.60;;;4.23;;
11439;SDS011;5776;51.814;4.510;2023-12-14T09:22:52;6.50;;;4.20;;
11439;SDS011;5776;51.814;4.510;2023-12-14T09:25:20;6.67;;;4.27;;
11439;SDS011;5776;51.814;4.510;2023-12-14T09:27:46;6.43;;;3.13;;
11439;SDS011;5776;51.814;4.510;2023-12-14T09:30:12;6.07;;;4.10;;
11439;SDS011;5776;51.814;4.510;2023-12-14T09:32:38;7.77;;;4.97;;
11439;SDS011;5776;51.814;4.510;2023-12-14T09:35:05;7.30;;;4.97;;
11439;SDS011;5776;51.814;4.510;2023-12-14T09:37:31;9.37;;;4.57;;
11439;SDS011;5776;51.814;4.510;2023-12-14T09:39:57;7.83;;;4.97;;
11439;SDS011;5776;51.814;4.510;2023-12-14T09:42:24;6.33;;;4.30;;
11439;SDS011;5776;51.814;4.510;2023-12-14T09:44:50;10.53;;;4.80;;
11439;SDS011;5776;51.814;4.510;2023-12-14T09:47:18;9.53;;;4.77;;
11439;SDS011;5776;51.814;4.510;2023-12-14T09:49:44;9.40;;;4.97;;
11439;SDS011;5776;51.814;4.510;2023-12-14T09:52:11;5.77;;;4.10;;
11439;SDS011;5776;51.814;4.510;2023-12-14T09:54:40;9.97;;;5.23;;
11439;SDS011;5776;51.814;4.510;2023-12-14T09:57:07;9.33;;;5.73;;
11439;SDS011;5776;51.814;4.510;2023-12-14T09:59:33;9.87;;;5.27;;
11439;SDS011;5776;51.814;4.510;2023-12-14T10:02:11;9.13;;;4.67;;
11439;SDS011;5776;51.814;4.510;2023-12-14T10:04:38;8.83;;;5.07;;
11439;SDS011;5776;51.814;4.510;2023-12-14T10:07:04;10.87;;;5.07;;
11439;SDS011;5776;51.814;4.510;2023-12-14T10:09:33;7.93;;;4.37;;
11439;SDS011;5776;51.814;4.510;2023-12-14T10:12:04;8.47;;;4.93;;
11439;SDS011;5776;51.814;4.510;2023-12-14T10:14:33;8.00;;;5.03;;
11439;SDS011;5776;51.814;4.510;2023-12-14T10:17:13;11.17;;;6.27;;
11439;SDS011;5776;51.814;4.510;2023-12-14T10:19:57;10.10;;;6.20;;
11439;SDS011;5776;51.814;4.510;2023-12-14T10:22:23;8.73;;;5.00;;
11439;SDS011;5776;51.814;4.510;2023-12-14T10:24:53;13.60;;;5.20;;
11439;SDS011;5776;51.814;4.510;2023-12-14T10:27:20;8.23;;;4.67;;
11439;SDS011;5776;51.814;4.510;2023-12-14T10:29:46;6.93;;;4.23;;
11439;SDS011;5776;51.814;4.510;2023-12-14T10:32:12;8.00;;;4.63;;
11439;SDS011;5776;51.814;4.510;2023-12-14T10:34:39;8.43;;;5.20;;
11439;SDS011;5776;51.814;4.510;2023-12-14T10:37:06;6.83;;;4.60;;
11439;SDS011;5776;51.814;4.510;2023-12-14T10:39:34;9.80;;;4.93;;
11439;SDS011;5776;51.814;4.510;2023-12-14T10:42:03;7.87;;;4.70;;
11439;SDS011;5776;51.814;4.510;2023-12-14T10:44:30;8.00;;;5.10;;
11439;SDS011;5776;51.814;4.510;2023-12-14T10:47:01;12.03;;;5.13;;
11439;SDS011;5776;51.814;4.510;2023-12-14T10:49:29;10.07;;;5.27;;
11439;SDS011;5776;51.814;4.510;2023-12-14T10:51:56;9.60;;;5.70;;
11439;SDS011;5776;51.814;4.510;2023-12-14T10:54:23;9.83;;;4.63;;
11439;SDS011;5776;51.814;4.510;2023-12-14T10:56:55;9.93;;;5.30;;
11439;SDS011;5776;51.814;4.510;2023-12-14T10:59:23;9.50;;;5.47;;
11439;SDS011;5776;51.814;4.510;2023-12-14T11:01:54;8.07;;;4.90;;
11439;SDS011;5776;51.814;4.510;2023-12-14T11:04:26;9.23;;;4.97;;
11439;SDS011;5776;51.814;4.510;2023-12-14T11:06:53;9.80;;;5.17;;
11439;SDS011;5776;51.814;4.510;2023-12-14T11:09:21;8.30;;;5.03;;
11439;SDS011;5776;51.814;4.510;2023-12-14T11:14:26;8.60;;;5.17;;
11439;SDS011;5776;51.814;4.510;2023-12-14T11:16:56;9.13;;;4.70;;
11439;SDS011;5776;51.814;4.510;2023-12-14T11:19:27;6.23;;;4.40;;
11439;SDS011;5776;51.814;4.510;2023-12-14T11:24:23;6.07;;;4.50;;
11439;SDS011;5776;51.814;4.510;2023-12-14T11:26:49;7.93;;;4.80;;
11439;SDS011;5776;51.814;4.510;2023-12-14T11:29:17;8.07;;;4.60;;
11439;SDS011;5776;51.814;4.510;2023-12-14T11:31:44;7.43;;;4.57;;
11439;SDS011;5776;51.814;4.510;2023-12-14T11:34:11;11.43;;;5.03;;
11439;SDS011;5776;51.814;4.510;2023-12-14T11:36:37;6.80;;;4.67;;
11439;SDS011;5776;51.814;4.510;2023-12-14T11:39:07;8.13;;;4.43;;
11439;SDS011;5776;51.814;4.510;2023-12-14T11:41:34;9.40;;;4.80;;
11439;SDS011;5776;51.814;4.510;2023-12-14T11:44:01;9.17;;;5.10;;
11439;SDS011;5776;51.814;4.510;2023-12-14T11:46:28;8.77;;;5.33;;
11439;SDS011;5776;51.814;4.510;2023-12-14T11:48:56;7.30;;;4.53;;
11439;SDS011;5776;51.814;4.510;2023-12-14T11:51:22;8.73;;;5.13;;
11439;SDS011;5776;51.814;4.510;2023-12-14T11:53:49;8.33;;;4.97;;
11439;SDS011;5776;51.814;4.510;2023-12-14T11:56:18;8.70;;;5.53;;
11439;SDS011;5776;51.814;4.510;2023-12-14T11:58:45;7.03;;;4.87;;
11439;SDS011;5776;51.814;4.510;2023-12-14T12:01:16;8.67;;;4.63;;
11439;SDS011;5776;51.814;4.510;2023-12-14T12:03:44;10.40;;;4.87;;
11439;SDS011;5776;51.814;4.510;2023-12-14T12:06:24;5.87;;;4.20;;
11439;SDS011;5776;51.814;4.510;2023-12-14T12:08:53;6.13;;;4.27;;
11439;SDS011;5776;51.814;4.510;2023-12-14T12:11:20;9.83;;;4.40;;
11439;SDS011;5776;51.814;4.510;2023-12-14T12:13:51;7.77;;;4.13;;
11439;SDS011;5776;51.814;4.510;2023-12-14T12:16:18;6.47;;;3.90;;
11439;SDS011;5776;51.814;4.510;2023-12-14T12:18:43;6.00;;;4.30;;
11439;SDS011;5776;51.814;4.510;2023-12-14T12:21:11;9.60;;;4.00;;
11439;SDS011;5776;51.814;4.510;2023-12-14T12:23:37;10.30;;;4.20;;
11439;SDS011;5776;51.814;4.510;2023-12-14T12:26:03;6.03;;;4.00;;
11439;SDS011;5776;51.814;4.510;2023-12-14T12:28:29;5.93;;;4.40;;
11439;SDS011;5776;51.814;4.510;2023-12-14T12:30:56;8.67;;;4.73;;
11439;SDS011;5776;51.814;4.510;2023-12-14T12:33:22;7.10;;;4.10;;
11439;SDS011;5776;51.814;4.510;2023-12-14T12:35:48;7.23;;;3.90;;
11439;SDS011;5776;51.814;4.510;2023-12-14T12:38:14;9.90;;;4.73;;
11439;SDS011;5776;51.814;4.510;2023-12-14T12:40:41;7.07;;;4.33;;
11439;SDS011;5776;51.814;4.510;2023-12-14T12:43:07;6.63;;;4.37;;
11439;SDS011;5776;51.814;4.510;2023-12-14T12:45:33;4.97;;;3.60;;
11439;SDS011;5776;51.814;4.510;2023-12-14T12:48:00;7.77;;;4.40;;
11439;SDS011;5776;51.814;4.510;2023-12-14T12:50:29;7.23;;;3.97;;
11439;SDS011;5776;51.814;4.510;2023-12-14T12:52:56;6.67;;;3.97;;
11439;SDS011;5776;51.814;4.510;2023-12-14T12:55:21;6.57;;;4.37;;
11439;SDS011;5776;51.814;4.510;2023-12-14T12:57:48;7.67;;;4.37;;
11439;SDS011;5776;51.814;4.510;2023-12-14T13:00:14;7.90;;;4.07;;
11439;SDS011;5776;51.814;4.510;2023-12-14T13:02:42;8.97;;;4.30;;
11439;SDS011;5776;51.814;4.510;2023-12-14T13:05:09;7.50;;;4.30;;
11439;SDS011;5776;51.814;4.510;2023-12-14T13:07:36;9.77;;;4.13;;
11439;SDS011;5776;51.814;4.510;2023-12-14T13:10:03;6.90;;;3.70;;
11439;SDS011;5776;51.814;4.510;2023-12-14T13:12:30;6.40;;;3.50;;
11439;SDS011;5776;51.814;4.510;2023-12-14T13:14:56;7.47;;;4.10;;
11439;SDS011;5776;51.814;4.510;2023-12-14T13:17:21;6.40;;;3.83;;
11439;SDS011;5776;51.814;4.510;2023-12-14T13:19:47;10.87;;;4.80;;
11439;SDS011;5776;51.814;4.510;2023-12-14T13:22:13;9.37;;;4.23;;
11439;SDS011;5776;51.814;4.510;2023-12-14T13:24:39;7.47;;;4.17;;
11439;SDS011;5776;51.814;4.510;2023-12-14T13:27:06;6.57;;;4.00;;
11439;SDS011;5776;51.814;4.510;2023-12-14T13:29:33;11.03;;;4.33;;
11439;SDS011;5776;51.814;4.510;2023-12-14T13:32:01;11.23;;;4.30;;
11439;SDS011;5776;51.814;4.510;2023-12-14T13:34:26;7.50;;;4.20;;
11439;SDS011;5776;51.814;4.510;2023-12-14T13:36:54;6.43;;;4.53;;
11439;SDS011;5776;51.814;4.510;2023-12-14T13:39:20;7.90;;;3.80;;
11439;SDS011;5776;51.814;4.510;2023-12-14T13:41:48;7.43;;;4.07;;
11439;SDS011;5776;51.814;4.510;2023-12-14T13:44:14;8.07;;;4.07;;
11439;SDS011;5776;51.814;4.510;2023-12-14T13:46:40;7.17;;;3.90;;
11439;SDS011;5776;51.814;4.510;2023-12-14T13:49:06;6.37;;;3.63;;
11439;SDS011;5776;51.814;4.510;2023-12-14T13:51:32;10.50;;;4.33;;
11439;SDS011;5776;51.814;4.510;2023-12-14T13:53:59;8.20;;;4.20;;
11439;SDS011;5776;51.814;4.510;2023-12-14T13:56:25;7.10;;;3.90;;
11439;SDS011;5776;51.814;4.510;2023-12-14T13:58:51;7.33;;;3.57;;
11439;SDS011;5776;51.814;4.510;2023-12-14T14:01:17;7.77;;;4.03;;
11439;SDS011;5776;51.814;4.510;2023-12-14T14:03:43;5.30;;;3.00;;
11439;SDS011;5776;51.814;4.510;2023-12-14T14:06:12;6.50;;;3.23;;
11439;SDS011;5776;51.814;4.510;2023-12-14T14:08:39;6.97;;;2.93;;
11439;SDS011;5776;51.814;4.510;2023-12-14T14:11:04;6.33;;;3.30;;
11439;SDS011;5776;51.814;4.510;2023-12-14T14:13:30;6.43;;;3.13;;
11439;SDS011;5776;51.814;4.510;2023-12-14T14:15:56;5.13;;;2.87;;
11439;SDS011;5776;51.814;4.510;2023-12-14T14:18:22;6.67;;;3.30;;
11439;SDS011;5776;51.814;4.510;2023-12-14T14:20:48;5.57;;;2.83;;
11439;SDS011;5776;51.814;4.510;2023-12-14T14:23:14;6.20;;;3.13;;
11439;SDS011;5776;51.814;4.510;2023-12-14T14:25:40;5.47;;;3.20;;
11439;SDS011;5776;51.814;4.510;2023-12-14T14:28:06;5.87;;;3.07;;
11439;SDS011;5776;51.814;4.510;2023-12-14T14:30:32;4.27;;;2.93;;
11439;SDS011;5776;51.814;4.510;2023-12-14T14:32:58;7.90;;;2.97;;
11439;SDS011;5776;51.814;4.510;2023-12-14T14:35:24;4.63;;;2.80;;
11439;SDS011;5776;51.814;4.510;2023-12-14T14:37:50;6.83;;;3.00;;
11439;SDS011;5776;51.814;4.510;2023-12-14T14:40:16;6.20;;;2.87;;
11439;SDS011;5776;51.814;4.510;2023-12-14T14:42:43;5.50;;;2.90;;
11439;SDS011;5776;51.814;4.510;2023-12-14T14:45:09;6.87;;;2.87;;
11439;SDS011;5776;51.814;4.510;2023-12-14T14:47:35;4.47;;;2.73;;
11439;SDS011;5776;51.814;4.510;2023-12-14T14:50:02;5.83;;;3.00;;
11439;SDS011;5776;51.814;4.510;2023-12-14T14:52:30;4.90;;;3.00;;
11439;SDS011;5776;51.814;4.510;2023-12-14T14:54:56;4.83;;;2.50;;
11439;SDS011;5776;51.814;4.510;2023-12-14T14:57:22;5.47;;;2.90;;
11439;SDS011;5776;51.814;4.510;2023-12-14T14:59:48;9.53;;;2.93;;